sensor_id;sensor_type;location;lat;lon;timestamp;P1;durP1;ratioP1;P2;durP2;ratioP2
9254;SDS011;4663;49.120;9.730;2023-04-01T00:01:18;51.03;;;48.53;;
9254;SDS011;4663;49.120;9.730;2023-04-01T00:03:44;55.43;;;52.60;;
9254;SDS011;4663;49.120;9.730;2023-04-01T00:06:11;49.67;;;47.33;;
9254;SDS011;4663;49.120;9.730;2023-04-01T00:08:38;49.93;;;47.63;;
9254;SDS011;4663;49.120;9.730;2023-04-01T00:11:03;50.33;;;47.87;;
9254;SDS011;4663;49.120;9.730;2023-04-01T00:13:29;43.87;;;41.83;;
9254;SDS011;4663;49.120;9.730;2023-04-01T00:15:55;43.93;;;41.77;;
9254;SDS011;4663;49.120;9.730;2023-04-01T00:18:20;47.77;;;45.43;;
9254;SDS011;4663;49.120;9.730;2023-04-01T00:20:47;43.00;;;40.67;;
9254;SDS011;4663;49.120;9.730;2023-04-01T00:23:14;45.07;;;42.83;;
9254;SDS011;4663;49.120;9.730;2023-04-01T00:25:40;44.10;;;41.97;;
9254;SDS011;4663;49.120;9.730;2023-04-01T00:28:05;47.80;;;45.33;;
9254;SDS011;4663;49.120;9.730;2023-04-01T00:30:31;45.17;;;42.90;;
9254;SDS011;4663;49.120;9.730;2023-04-01T00:32:56;45.53;;;43.33;;
9254;SDS011;4663;49.120;9.730;2023-04-01T00:35:22;46.17;;;43.97;;
9254;SDS011;4663;49.120;9.730;2023-04-01T00:37:47;47.73;;;45.40;;
9254;SDS011;4663;49.120;9.730;2023-04-01T00:40:24;47.67;;;45.47;;
9254;SDS011;4663;49.120;9.730;2023-04-01T00:42:50;48.80;;;46.40;;
9254;SDS011;4663;49.120;9.730;2023-04-01T00:45:49;52.47;;;49.67;;
9254;SDS011;4663;49.120;9.730;2023-04-01T00:48:13;51.03;;;48.63;;
9254;SDS011;4663;49.120;9.730;2023-04-01T00:50:49;51.37;;;48.97;;
9254;SDS011;4663;49.120;9.730;2023-04-01T00:53:21;48.33;;;46.00;;
9254;SDS011;4663;49.120;9.730;2023-04-01T00:55:58;51.77;;;49.37;;
9254;SDS011;4663;49.120;9.730;2023-04-01T00:58:29;46.13;;;43.90;;
9254;SDS011;4663;49.120;9.730;2023-04-01T01:00:58;48.77;;;46.47;;
9254;SDS011;4663;49.120;9.730;2023-04-01T01:03:24;48.27;;;45.87;;
9254;SDS011;4663;49.120;9.730;2023-04-01T01:09:06;41.67;;;39.70;;
9254;SDS011;4663;49.120;9.730;2023-04-01T01:11:42;41.40;;;39.40;;
9254;SDS011;4663;49.120;9.730;2023-04-01T01:17:21;43.27;;;41.17;;
9254;SDS011;4663;49.120;9.730;2023-04-01T01:20:10;39.80;;;37.80;;
9254;SDS011;4663;49.120;9.730;2023-04-01T01:34:04;29.47;;;28.00;;
9254;SDS011;4663;49.120;9.730;2023-04-01T01:36:48;25.30;;;24.10;;
9254;SDS011;4663;49.120;9.730;2023-04-01T01:39:19;26.50;;;25.30;;
9254;SDS011;4663;49.120;9.730;2023-04-01T01:41:51;23.60;;;22.50;;
9254;SDS011;4663;49.120;9.730;2023-04-01T01:44:18;24.40;;;23.20;;
9254;SDS011;4663;49.120;9.730;2023-04-01T01:46:45;25.77;;;24.47;;
9254;SDS011;4663;49.120;9.730;2023-04-01T01:49:12;28.10;;;26.50;;
9254;SDS011;4663;49.120;9.730;2023-04-01T01:51:40;29.93;;;28.43;;
9254;SDS011;4663;49.120;9.730;2023-04-01T01:54:11;30.23;;;28.73;;
9254;SDS011;4663;49.120;9.730;2023-04-01T01:56:38;33.50;;;31.90;;
9254;SDS011;4663;49.120;9.730;2023-04-01T01:59:05;37.13;;;35.27;;
9254;SDS011;4663;49.120;9.730;2023-04-01T02:01:35;38.73;;;36.63;;
9254;SDS011;4663;49.120;9.730;2023-04-01T02:04:06;41.20;;;39.13;;
9254;SDS011;4663;49.120;9.730;2023-04-01T02:06:34;39.37;;;37.50;;
9254;SDS011;4663;49.120;9.730;2023-04-01T02:09:05;40.77;;;38.80;;
9254;SDS011;4663;49.120;9.730;2023-04-01T02:11:40;41.03;;;38.73;;
9254;SDS011;4663;49.120;9.730;2023-04-01T02:14:13;38.00;;;36.10;;
9254;SDS011;4663;49.120;9.730;2023-04-01T02:16:44;41.43;;;39.33;;
9254;SDS011;4663;49.120;9.730;2023-04-01T02:19:10;38.93;;;37.13;;
9254;SDS011;4663;49.120;9.730;2023-04-01T02:21:38;42.43;;;40.20;;
9254;SDS011;4663;49.120;9.730;2023-04-01T02:24:05;43.70;;;41.50;;
9254;SDS011;4663;49.120;9.730;2023-04-01T02:26:35;45.40;;;42.77;;
9254;SDS011;4663;49.120;9.730;2023-04-01T02:29:01;44.90;;;42.60;;
9254;SDS011;4663;49.120;9.730;2023-04-01T02:31:28;48.20;;;45.87;;
9254;SDS011;4663;49.120;9.730;2023-04-01T02:33:55;51.63;;;49.03;;
9254;SDS011;4663;49.120;9.730;2023-04-01T02:36:20;53.53;;;50.93;;
9254;SDS011;4663;49.120;9.730;2023-04-01T02:38:46;57.57;;;54.77;;
9254;SDS011;4663;49.120;9.730;2023-04-01T02:41:13;58.87;;;56.07;;
9254;SDS011;4663;49.120;9.730;2023-04-01T02:43:38;59.27;;;56.10;;
9254;SDS011;4663;49.120;9.730;2023-04-01T02:46:04;61.43;;;58.47;;
9254;SDS011;4663;49.120;9.730;2023-04-01T02:48:30;60.97;;;58.00;;
9254;SDS011;4663;49.120;9.730;2023-04-01T02:50:55;59.20;;;56.33;;
9254;SDS011;4663;49.120;9.730;2023-04-01T02:53:21;56.13;;;53.43;;
9254;SDS011;4663;49.120;9.730;2023-04-01T02:55:47;56.43;;;53.67;;
9254;SDS011;4663;49.120;9.730;2023-04-01T02:58:15;56.63;;;53.97;;
9254;SDS011;4663;49.120;9.730;2023-04-01T03:00:41;53.83;;;51.23;;
9254;SDS011;4663;49.120;9.730;2023-04-01T03:03:07;54.80;;;52.27;;
9254;SDS011;4663;49.120;9.730;2023-04-01T03:05:33;53.50;;;51.07;;
9254;SDS011;4663;49.120;9.730;2023-04-01T03:07:58;49.50;;;47.20;;
9254;SDS011;4663;49.120;9.730;2023-04-01T03:10:23;49.20;;;46.70;;
9254;SDS011;4663;49.120;9.730;2023-04-01T03:12:49;50.07;;;47.50;;
9254;SDS011;4663;49.120;9.730;2023-04-01T03:15:15;50.80;;;48.40;;
9254;SDS011;4663;49.120;9.730;2023-04-01T03:17:41;58.10;;;55.30;;
9254;SDS011;4663;49.120;9.730;2023-04-01T03:20:07;55.30;;;52.77;;
9254;SDS011;4663;49.120;9.730;2023-04-01T03:22:35;52.33;;;49.60;;
9254;SDS011;4663;49.120;9.730;2023-04-01T03:25:01;62.27;;;59.40;;
9254;SDS011;4663;49.120;9.730;2023-04-01T03:27:27;54.17;;;51.60;;
9254;SDS011;4663;49.120;9.730;2023-04-01T03:29:53;51.33;;;48.83;;
9254;SDS011;4663;49.120;9.730;2023-04-01T03:32:18;50.73;;;48.33;;
9254;SDS011;4663;49.120;9.730;2023-04-01T03:34:44;55.47;;;52.80;;
9254;SDS011;4663;49.120;9.730;2023-04-01T03:37:09;54.27;;;51.67;;
9254;SDS011;4663;49.120;9.730;2023-04-01T03:39:35;50.23;;;47.43;;
9254;SDS011;4663;49.120;9.730;2023-04-01T03:42:00;55.83;;;53.23;;
9254;SDS011;4663;49.120;9.730;2023-04-01T03:44:25;52.67;;;50.07;;
9254;SDS011;4663;49.120;9.730;2023-04-01T03:46:51;48.87;;;46.53;;
9254;SDS011;4663;49.120;9.730;2023-04-01T03:49:16;42.03;;;40.03;;
9254;SDS011;4663;49.120;9.730;2023-04-01T03:51:43;37.73;;;35.93;;
9254;SDS011;4663;49.120;9.730;2023-04-01T03:54:09;34.10;;;32.40;;
9254;SDS011;4663;49.120;9.730;2023-04-01T03:56:35;30.57;;;29.10;;
9254;SDS011;4663;49.120;9.730;2023-04-01T03:59:02;32.00;;;30.23;;
9254;SDS011;4663;49.120;9.730;2023-04-01T04:01:29;27.23;;;25.97;;
9254;SDS011;4663;49.120;9.730;2023-04-01T04:03:54;26.00;;;24.80;;
9254;SDS011;4663;49.120;9.730;2023-04-01T04:06:21;25.50;;;24.33;;
9254;SDS011;4663;49.120;9.730;2023-04-01T04:08:47;27.53;;;26.00;;
9254;SDS011;4663;49.120;9.730;2023-04-01T04:11:13;23.97;;;22.83;;
9254;SDS011;4663;49.120;9.730;2023-04-01T04:13:38;23.20;;;22.13;;
9254;SDS011;4663;49.120;9.730;2023-04-01T04:16:04;24.30;;;23.17;;
9254;SDS011;4663;49.120;9.730;2023-04-01T04:18:30;22.73;;;21.53;;
9254;SDS011;4663;49.120;9.730;2023-04-01T04:20:55;20.90;;;19.90;;
9254;SDS011;4663;49.120;9.730;2023-04-01T04:23:20;22.20;;;21.10;;
9254;SDS011;4663;49.120;9.730;2023-04-01T04:28:28;22.63;;;21.60;;
9254;SDS011;4663;49.120;9.730;2023-04-01T04:30:55;23.97;;;22.67;;
9254;SDS011;4663;49.120;9.730;2023-04-01T04:33:21;22.33;;;21.30;;
9254;SDS011;4663;49.120;9.730;2023-04-01T04:35:47;25.07;;;23.97;;
9254;SDS011;4663;49.120;9.730;2023-04-01T04:38:12;23.67;;;22.57;;
9254;SDS011;4663;49.120;9.730;2023-04-01T04:40:38;23.70;;;22.60;;
9254;SDS011;4663;49.120;9.730;2023-04-01T04:43:04;26.73;;;25.33;;
9254;SDS011;4663;49.120;9.730;2023-04-01T04:45:30;26.50;;;25.20;;
9254;SDS011;4663;49.120;9.730;2023-04-01T04:47:55;29.03;;;27.73;;
9254;SDS011;4663;49.120;9.730;2023-04-01T04:50:21;28.90;;;27.50;;
9254;SDS011;4663;49.120;9.730;2023-04-01T04:52:46;30.33;;;28.67;;
9254;SDS011;4663;49.120;9.730;2023-04-01T04:55:12;30.23;;;28.80;;
9254;SDS011;4663;49.120;9.730;2023-04-01T04:57:37;30.90;;;29.43;;
9254;SDS011;4663;49.120;9.730;2023-04-01T05:00:03;31.70;;;30.17;;
9254;SDS011;4663;49.120;9.730;2023-04-01T05:02:29;32.47;;;30.97;;
9254;SDS011;4663;49.120;9.730;2023-04-01T05:04:54;30.83;;;29.30;;
9254;SDS011;4663;49.120;9.730;2023-04-01T05:07:20;29.80;;;28.47;;
9254;SDS011;4663;49.120;9.730;2023-04-01T05:09:45;32.00;;;30.50;;
9254;SDS011;4663;49.120;9.730;2023-04-01T05:12:11;30.97;;;29.53;;
9254;SDS011;4663;49.120;9.730;2023-04-01T05:14:38;35.20;;;33.50;;
9254;SDS011;4663;49.120;9.730;2023-04-01T05:17:03;34.40;;;32.63;;
9254;SDS011;4663;49.120;9.730;2023-04-01T05:19:29;33.83;;;32.20;;
9254;SDS011;4663;49.120;9.730;2023-04-01T05:21:54;32.90;;;31.37;;
9254;SDS011;4663;49.120;9.730;2023-04-01T05:24:20;33.07;;;31.53;;
9254;SDS011;4663;49.120;9.730;2023-04-01T05:26:45;32.40;;;30.87;;
9254;SDS011;4663;49.120;9.730;2023-04-01T05:29:10;31.43;;;29.90;;
9254;SDS011;4663;49.120;9.730;2023-04-01T05:31:36;31.50;;;30.00;;
9254;SDS011;4663;49.120;9.730;2023-04-01T05:34:01;32.13;;;30.60;;
9254;SDS011;4663;49.120;9.730;2023-04-01T05:36:27;34.83;;;33.20;;
9254;SDS011;4663;49.120;9.730;2023-04-01T05:38:54;36.10;;;34.40;;
9254;SDS011;4663;49.120;9.730;2023-04-01T05:41:20;40.57;;;38.53;;
9254;SDS011;4663;49.120;9.730;2023-04-01T05:43:46;39.77;;;37.77;;
9254;SDS011;4663;49.120;9.730;2023-04-01T05:46:11;38.40;;;36.67;;
9254;SDS011;4663;49.120;9.730;2023-04-01T05:48:36;41.17;;;39.13;;
9254;SDS011;4663;49.120;9.730;2023-04-01T05:51:02;43.87;;;41.77;;
9254;SDS011;4663;49.120;9.730;2023-04-01T05:53:28;42.23;;;40.20;;
9254;SDS011;4663;49.120;9.730;2023-04-01T05:55:54;45.43;;;43.23;;
9254;SDS011;4663;49.120;9.730;2023-04-01T05:58:19;46.67;;;44.47;;
9254;SDS011;4663;49.120;9.730;2023-04-01T06:00:45;44.37;;;42.23;;
9254;SDS011;4663;49.120;9.730;2023-04-01T06:03:10;43.47;;;41.47;;
9254;SDS011;4663;49.120;9.730;2023-04-01T06:05:39;46.83;;;44.63;;
9254;SDS011;4663;49.120;9.730;2023-04-01T06:08:11;47.57;;;45.30;;
9254;SDS011;4663;49.120;9.730;2023-04-01T06:42:34;31.00;;;29.33;;
9254;SDS011;4663;49.120;9.730;2023-04-01T06:50:30;22.47;;;21.37;;
9254;SDS011;4663;49.120;9.730;2023-04-01T06:53:02;19.43;;;18.23;;
9254;SDS011;4663;49.120;9.730;2023-04-01T07:00:48;16.37;;;15.53;;
9254;SDS011;4663;49.120;9.730;2023-04-01T07:05:46;15.43;;;14.73;;
9254;SDS011;4663;49.120;9.730;2023-04-01T07:08:13;15.33;;;14.60;;
9254;SDS011;4663;49.120;9.730;2023-04-01T07:10:50;14.50;;;13.40;;
9254;SDS011;4663;49.120;9.730;2023-04-01T07:13:29;15.07;;;14.37;;
9254;SDS011;4663;49.120;9.730;2023-04-01T07:16:17;14.17;;;13.37;;
9254;SDS011;4663;49.120;9.730;2023-04-01T07:24:24;13.60;;;12.80;;
9254;SDS011;4663;49.120;9.730;2023-04-01T07:26:55;12.47;;;11.77;;
9254;SDS011;4663;49.120;9.730;2023-04-01T07:29:22;13.57;;;12.57;;
9254;SDS011;4663;49.120;9.730;2023-04-01T07:31:51;15.00;;;14.30;;
9254;SDS011;4663;49.120;9.730;2023-04-01T07:34:22;13.23;;;12.43;;
9254;SDS011;4663;49.120;9.730;2023-04-01T07:36:53;13.37;;;12.67;;
9254;SDS011;4663;49.120;9.730;2023-04-01T07:50:47;16.67;;;15.77;;
9254;SDS011;4663;49.120;9.730;2023-04-01T07:56:12;13.90;;;13.20;;
9254;SDS011;4663;49.120;9.730;2023-04-01T07:58:54;14.93;;;14.00;;
9254;SDS011;4663;49.120;9.730;2023-04-01T08:06:39;15.07;;;14.17;;
9254;SDS011;4663;49.120;9.730;2023-04-01T08:20:53;15.03;;;14.33;;
9254;SDS011;4663;49.120;9.730;2023-04-01T08:23:27;14.63;;;13.77;;
9254;SDS011;4663;49.120;9.730;2023-04-01T08:26:03;15.80;;;14.70;;
9254;SDS011;4663;49.120;9.730;2023-04-01T08:28:41;13.33;;;12.67;;
9254;SDS011;4663;49.120;9.730;2023-04-01T08:31:31;13.53;;;12.87;;
9254;SDS011;4663;49.120;9.730;2023-04-01T08:34:03;15.90;;;15.00;;
9254;SDS011;4663;49.120;9.730;2023-04-01T08:36:37;16.70;;;15.90;;
9254;SDS011;4663;49.120;9.730;2023-04-01T08:39:07;16.40;;;15.60;;
9254;SDS011;4663;49.120;9.730;2023-04-01T08:56:14;17.40;;;16.57;;
9254;SDS011;4663;49.120;9.730;2023-04-01T09:07:56;22.27;;;21.23;;
9254;SDS011;4663;49.120;9.730;2023-04-01T09:18:58;22.53;;;21.47;;
9254;SDS011;4663;49.120;9.730;2023-04-01T09:24:19;23.93;;;22.83;;
9254;SDS011;4663;49.120;9.730;2023-04-01T09:35:24;22.20;;;21.20;;
9254;SDS011;4663;49.120;9.730;2023-04-01T10:00:39;19.93;;;19.00;;
9254;SDS011;4663;49.120;9.730;2023-04-01T10:25:21;31.17;;;29.65;;
9254;SDS011;4663;49.120;9.730;2023-04-01T10:28:17;30.20;;;28.63;;
9254;SDS011;4663;49.120;9.730;2023-04-01T11:01:11;31.48;;;30.02;;
9254;SDS011;4663;49.120;9.730;2023-04-01T11:33:05;28.23;;;26.93;;
9254;SDS011;4663;49.120;9.730;2023-04-01T11:35:42;29.33;;;27.90;;
9254;SDS011;4663;49.120;9.730;2023-04-01T11:44:16;29.55;;;28.20;;
9254;SDS011;4663;49.120;9.730;2023-04-01T11:49:36;30.35;;;28.70;;
9254;SDS011;4663;49.120;9.730;2023-04-01T11:55:10;25.00;;;23.85;;
9254;SDS011;4663;49.120;9.730;2023-04-01T12:24:52;27.67;;;26.40;;
9254;SDS011;4663;49.120;9.730;2023-04-01T12:27:49;26.02;;;24.83;;
9254;SDS011;4663;49.120;9.730;2023-04-01T12:30:32;27.65;;;26.38;;
9254;SDS011;4663;49.120;9.730;2023-04-01T12:33:14;29.08;;;27.75;;
9254;SDS011;4663;49.120;9.730;2023-04-01T12:36:13;28.30;;;26.95;;
9254;SDS011;4663;49.120;9.730;2023-04-01T12:47:00;31.57;;;30.07;;
9254;SDS011;4663;49.120;9.730;2023-04-01T12:50:14;34.17;;;32.43;;
9254;SDS011;4663;49.120;9.730;2023-04-01T12:52:26;33.22;;;31.67;;
9254;SDS011;4663;49.120;9.730;2023-04-01T12:55:59;32.88;;;31.35;;
9254;SDS011;4663;49.120;9.730;2023-04-01T13:17:35;25.60;;;24.35;;
9254;SDS011;4663;49.120;9.730;2023-04-01T13:30:47;29.13;;;27.77;;
9254;SDS011;4663;49.120;9.730;2023-04-01T13:39:02;23.42;;;22.30;;
9254;SDS011;4663;49.120;9.730;2023-04-01T13:42:00;25.90;;;24.58;;
9254;SDS011;4663;49.120;9.730;2023-04-01T13:44:54;26.65;;;25.35;;
9254;SDS011;4663;49.120;9.730;2023-04-01T13:57:56;29.13;;;27.77;;
9254;SDS011;4663;49.120;9.730;2023-04-01T14:25:04;30.80;;;29.38;;
9254;SDS011;4663;49.120;9.730;2023-04-01T14:50:13;34.47;;;32.83;;
9254;SDS011;4663;49.120;9.730;2023-04-01T14:52:43;32.60;;;31.07;;
9254;SDS011;4663;49.120;9.730;2023-04-01T14:55:29;33.27;;;31.73;;
9254;SDS011;4663;49.120;9.730;2023-04-01T14:58:00;33.57;;;32.00;;
9254;SDS011;4663;49.120;9.730;2023-04-01T15:12:11;34.70;;;33.07;;
9254;SDS011;4663;49.120;9.730;2023-04-01T15:33:32;31.93;;;30.40;;
9254;SDS011;4663;49.120;9.730;2023-04-01T15:36:24;32.72;;;31.10;;
9254;SDS011;4663;49.120;9.730;2023-04-01T15:38:53;35.47;;;33.83;;
9254;SDS011;4663;49.120;9.730;2023-04-01T15:41:28;31.33;;;29.87;;
9254;SDS011;4663;49.120;9.730;2023-04-01T15:44:26;31.10;;;29.65;;
9254;SDS011;4663;49.120;9.730;2023-04-01T15:58:54;29.47;;;28.07;;
9254;SDS011;4663;49.120;9.730;2023-04-01T16:21:08;34.45;;;32.80;;
9254;SDS011;4663;49.120;9.730;2023-04-01T16:23:47;37.23;;;35.47;;
9254;SDS011;4663;49.120;9.730;2023-04-01T16:26:19;36.47;;;34.70;;
9254;SDS011;4663;49.120;9.730;2023-04-01T16:29:02;30.07;;;28.40;;
9254;SDS011;4663;49.120;9.730;2023-04-01T16:31:32;27.67;;;25.90;;
9254;SDS011;4663;49.120;9.730;2023-04-01T16:34:08;24.00;;;22.83;;
9254;SDS011;4663;49.120;9.730;2023-04-01T16:36:47;24.90;;;23.53;;
9254;SDS011;4663;49.120;9.730;2023-04-01T16:39:33;21.23;;;20.23;;
9254;SDS011;4663;49.120;9.730;2023-04-01T16:48:00;17.30;;;16.40;;
9254;SDS011;4663;49.120;9.730;2023-04-01T16:53:34;18.37;;;17.23;;
9254;SDS011;4663;49.120;9.730;2023-04-01T16:56:12;18.27;;;17.37;;
9254;SDS011;4663;49.120;9.730;2023-04-01T17:01:20;18.27;;;17.27;;
9254;SDS011;4663;49.120;9.730;2023-04-01T17:03:52;18.90;;;17.97;;
9254;SDS011;4663;49.120;9.730;2023-04-01T17:06:31;16.93;;;16.03;;
9254;SDS011;4663;49.120;9.730;2023-04-01T17:18:13;17.83;;;16.93;;
9254;SDS011;4663;49.120;9.730;2023-04-01T17:28:34;15.80;;;15.10;;
9254;SDS011;4663;49.120;9.730;2023-04-01T17:31:14;16.27;;;15.53;;
9254;SDS011;4663;49.120;9.730;2023-04-01T17:47:00;20.53;;;19.53;;
9254;SDS011;4663;49.120;9.730;2023-04-01T17:49:33;19.77;;;18.77;;
9254;SDS011;4663;49.120;9.730;2023-04-01T17:52:54;20.60;;;19.53;;
9254;SDS011;4663;49.120;9.730;2023-04-01T18:01:05;21.87;;;20.77;;
9254;SDS011;4663;49.120;9.730;2023-04-01T18:14:13;27.73;;;26.33;;
9254;SDS011;4663;49.120;9.730;2023-04-01T18:22:47;28.80;;;27.37;;
9254;SDS011;4663;49.120;9.730;2023-04-01T18:25:12;35.37;;;33.60;;
9254;SDS011;4663;49.120;9.730;2023-04-01T18:27:45;33.33;;;31.70;;
9254;SDS011;4663;49.120;9.730;2023-04-01T18:30:26;35.77;;;33.97;;
9254;SDS011;4663;49.120;9.730;2023-04-01T18:33:06;37.03;;;35.23;;
9254;SDS011;4663;49.120;9.730;2023-04-01T18:38:12;34.70;;;32.83;;
9254;SDS011;4663;49.120;9.730;2023-04-01T18:52:35;34.17;;;32.43;;
9254;SDS011;4663;49.120;9.730;2023-04-01T18:58:06;37.33;;;35.10;;
9254;SDS011;4663;49.120;9.730;2023-04-01T19:00:39;36.33;;;34.67;;
9254;SDS011;4663;49.120;9.730;2023-04-01T19:05:51;38.30;;;36.53;;
9254;SDS011;4663;49.120;9.730;2023-04-01T19:13:34;52.57;;;49.93;;
9254;SDS011;4663;49.120;9.730;2023-04-01T19:31:54;50.70;;;48.30;;
9254;SDS011;4663;49.120;9.730;2023-04-01T19:37:51;50.87;;;48.47;;
9254;SDS011;4663;49.120;9.730;2023-04-01T19:45:42;51.67;;;49.07;;
9254;SDS011;4663;49.120;9.730;2023-04-01T19:53:36;48.57;;;46.30;;
9254;SDS011;4663;49.120;9.730;2023-04-01T19:58:58;53.13;;;50.67;;
9254;SDS011;4663;49.120;9.730;2023-04-01T20:01:43;50.30;;;47.90;;
9254;SDS011;4663;49.120;9.730;2023-04-01T20:04:17;48.07;;;45.80;;
9254;SDS011;4663;49.120;9.730;2023-04-01T20:10:14;51.33;;;48.70;;
9254;SDS011;4663;49.120;9.730;2023-04-01T20:13:05;48.27;;;45.83;;
9254;SDS011;4663;49.120;9.730;2023-04-01T20:15:46;50.77;;;48.10;;
9254;SDS011;4663;49.120;9.730;2023-04-01T20:18:22;54.30;;;51.60;;
9254;SDS011;4663;49.120;9.730;2023-04-01T20:21:00;51.43;;;48.93;;
9254;SDS011;4663;49.120;9.730;2023-04-01T20:26:03;51.23;;;48.63;;
9254;SDS011;4663;49.120;9.730;2023-04-01T20:31:43;46.43;;;43.73;;
9254;SDS011;4663;49.120;9.730;2023-04-01T20:37:00;51.03;;;48.70;;
9254;SDS011;4663;49.120;9.730;2023-04-01T20:43:20;49.17;;;46.70;;
9254;SDS011;4663;49.120;9.730;2023-04-01T20:48:11;51.93;;;49.33;;
9254;SDS011;4663;49.120;9.730;2023-04-01T20:50:50;52.57;;;49.90;;
9254;SDS011;4663;49.120;9.730;2023-04-01T20:53:28;52.77;;;50.23;;
9254;SDS011;4663;49.120;9.730;2023-04-01T20:58:46;55.43;;;52.83;;
9254;SDS011;4663;49.120;9.730;2023-04-01T21:12:20;51.77;;;49.23;;
9254;SDS011;4663;49.120;9.730;2023-04-01T21:23:29;53.33;;;50.77;;
9254;SDS011;4663;49.120;9.730;2023-04-01T21:50:39;53.23;;;50.43;;
9254;SDS011;4663;49.120;9.730;2023-04-01T22:12:54;56.93;;;54.17;;
9254;SDS011;4663;49.120;9.730;2023-04-01T22:15:45;57.23;;;54.53;;
9254;SDS011;4663;49.120;9.730;2023-04-01T22:20:55;57.00;;;54.13;;
9254;SDS011;4663;49.120;9.730;2023-04-01T22:23:52;60.90;;;57.73;;
9254;SDS011;4663;49.120;9.730;2023-04-01T22:26:33;56.97;;;54.20;;
9254;SDS011;4663;49.120;9.730;2023-04-01T22:32:17;60.30;;;57.47;;
9254;SDS011;4663;49.120;9.730;2023-04-01T22:34:51;59.17;;;56.13;;
9254;SDS011;4663;49.120;9.730;2023-04-01T22:37:32;59.03;;;56.17;;
9254;SDS011;4663;49.120;9.730;2023-04-01T22:42:56;61.60;;;58.37;;
9254;SDS011;4663;49.120;9.730;2023-04-01T22:45:35;59.40;;;56.07;;
9254;SDS011;4663;49.120;9.730;2023-04-01T22:48:16;61.80;;;58.57;;
9254;SDS011;4663;49.120;9.730;2023-04-01T22:56:38;62.53;;;59.57;;
9254;SDS011;4663;49.120;9.730;2023-04-01T23:01:56;61.40;;;58.30;;
9254;SDS011;4663;49.120;9.730;2023-04-01T23:04:32;62.00;;;58.90;;
9254;SDS011;4663;49.120;9.730;2023-04-01T23:07:04;62.13;;;59.23;;
9254;SDS011;4663;49.120;9.730;2023-04-01T23:09:48;65.17;;;62.13;;
9254;SDS011;4663;49.120;9.730;2023-04-01T23:12:15;61.00;;;57.90;;
9254;SDS011;4663;49.120;9.730;2023-04-01T23:14:50;65.60;;;62.47;;
9254;SDS011;4663;49.120;9.730;2023-04-01T23:22:34;63.67;;;60.67;;
9254;SDS011;4663;49.120;9.730;2023-04-01T23:38:38;61.33;;;58.43;;
9254;SDS011;4663;49.120;9.730;2023-04-01T23:41:09;64.60;;;61.50;;
9254;SDS011;4663;49.120;9.730;2023-04-01T23:46:24;63.63;;;60.57;;
9254;SDS011;4663;49.120;9.730;2023-04-01T23:48:50;64.27;;;61.23;;
9254;SDS011;4663;49.120;9.730;2023-04-01T23:51:18;68.03;;;64.40;;
9254;SDS011;4663;49.120;9.730;2023-04-01T23:53:47;67.50;;;64.17;;
9254;SDS011;4663;49.120;9.730;2023-04-01T23:56:21;63.03;;;59.77;;
9254;SDS011;4663;49.120;9.730;2023-04-01T23:58:48;66.80;;;63.57;;
